createdAt,value
2022-10-22T00:01:38.975Z,0.70
2022-10-22T00:04:06.128Z,0.90
2022-10-22T00:06:33.210Z,0.93
2022-10-22T00:09:00.188Z,1.30
2022-10-22T00:11:26.763Z,0.57
2022-10-22T00:13:53.253Z,0.80
2022-10-22T00:16:19.627Z,0.82
2022-10-22T00:18:46.044Z,1.00
2022-10-22T00:21:12.897Z,0.90
2022-10-22T00:23:42.853Z,1.30
2022-10-22T00:26:10.356Z,0.95
2022-10-22T00:28:37.028Z,0.80
2022-10-22T00:31:03.669Z,0.80
2022-10-22T00:33:30.957Z,1.02
2022-10-22T00:35:57.772Z,0.98
2022-10-22T00:38:24.239Z,0.90
2022-10-22T00:40:50.803Z,0.85
2022-10-22T00:43:19.711Z,1.15
2022-10-22T00:45:46.606Z,0.80
2022-10-22T00:48:14.816Z,0.82
2022-10-22T00:50:45.824Z,0.82
2022-10-22T00:53:19.408Z,0.90
2022-10-22T00:55:49.238Z,0.80
2022-10-22T00:58:16.249Z,0.93
2022-10-22T01:00:43.099Z,0.80
2022-10-22T01:03:09.709Z,0.98
2022-10-22T01:05:44.311Z,0.93
2022-10-22T01:08:25.492Z,1.00
2022-10-22T01:11:07.983Z,1.08
2022-10-22T01:13:58.589Z,1.00
2022-10-22T01:16:55.559Z,1.80
2022-10-22T01:19:40.175Z,1.00
2022-10-22T01:22:18.963Z,0.80
2022-10-22T01:25:21.203Z,0.93
2022-10-22T01:27:55.670Z,0.98
2022-10-22T01:30:22.752Z,0.70
2022-10-22T01:32:52.939Z,1.00
2022-10-22T01:35:25.372Z,0.85
2022-10-22T01:37:58.681Z,1.88
2022-10-22T01:40:26.188Z,1.50
2022-10-22T01:42:57.419Z,1.15
2022-10-22T01:45:23.940Z,1.50
2022-10-22T01:48:00.490Z,2.25
2022-10-22T01:50:56.044Z,2.70
2022-10-22T01:53:32.406Z,1.67
2022-10-22T01:56:29.322Z,2.50
2022-10-22T01:59:08.187Z,1.42
2022-10-22T02:02:03.944Z,1.13
2022-10-22T02:04:41.057Z,0.98
2022-10-22T02:07:11.435Z,1.00
2022-10-22T02:09:40.350Z,0.93
2022-10-22T02:12:09.125Z,0.80
2022-10-22T02:14:41.326Z,0.60
2022-10-22T02:17:13.059Z,1.00
2022-10-22T02:19:53.779Z,1.10
2022-10-22T02:22:20.496Z,0.98
2022-10-22T02:24:48.667Z,1.10
2022-10-22T02:27:31.836Z,0.90
2022-10-22T02:29:58.197Z,1.20
2022-10-22T02:32:30.323Z,0.85
2022-10-22T02:34:57.388Z,0.80
2022-10-22T02:37:25.571Z,1.00
2022-10-22T02:39:52.983Z,0.95
2022-10-22T02:42:19.535Z,1.05
2022-10-22T02:44:45.933Z,1.65
2022-10-22T02:47:12.371Z,1.67
2022-10-22T02:49:38.760Z,1.52
2022-10-22T02:52:05.302Z,1.30
2022-10-22T02:54:31.831Z,1.00
2022-10-22T02:56:58.206Z,1.10
2022-10-22T02:59:24.650Z,1.00
2022-10-22T03:01:51.084Z,0.60
2022-10-22T03:04:17.520Z,0.57
2022-10-22T03:06:44.635Z,0.80
2022-10-22T03:09:11.256Z,0.75
2022-10-22T03:11:37.765Z,0.40
2022-10-22T03:14:04.187Z,1.35
2022-10-22T03:16:30.611Z,0.85
2022-10-22T03:18:57.118Z,0.82
2022-10-22T03:21:34.250Z,0.80
2022-10-22T03:24:05.725Z,0.73
2022-10-22T03:26:32.734Z,0.75
2022-10-22T03:29:00.816Z,1.10
2022-10-22T03:31:27.229Z,0.80
2022-10-22T03:33:53.838Z,1.20
2022-10-22T03:36:20.353Z,0.80
2022-10-22T03:38:47.252Z,1.00
2022-10-22T03:41:13.858Z,0.80
2022-10-22T03:43:41.100Z,0.82
2022-10-22T03:46:07.872Z,0.77
2022-10-22T03:48:34.314Z,0.80
2022-10-22T03:51:00.761Z,0.60
2022-10-22T03:53:27.189Z,0.95
2022-10-22T03:55:53.604Z,0.80
2022-10-22T03:58:20.051Z,0.90
2022-10-22T04:00:46.551Z,0.70
2022-10-22T04:03:12.989Z,0.98
2022-10-22T04:05:39.428Z,0.80
2022-10-22T04:08:05.924Z,0.70
2022-10-22T04:10:32.412Z,0.70
2022-10-22T04:12:58.856Z,0.60
2022-10-22T04:15:28.075Z,0.55
2022-10-22T04:17:55.343Z,0.60
2022-10-22T04:20:21.761Z,0.60
2022-10-22T04:22:48.211Z,0.70
2022-10-22T04:25:14.692Z,0.75
2022-10-22T04:27:41.238Z,0.65
2022-10-22T04:30:08.533Z,0.70
2022-10-22T04:32:35.008Z,0.63
2022-10-22T04:35:01.467Z,0.93
2022-10-22T04:37:27.853Z,0.68
2022-10-22T04:39:54.281Z,1.05
2022-10-22T04:42:20.672Z,0.70
2022-10-22T04:44:47.097Z,0.65
2022-10-22T04:47:13.480Z,0.77
2022-10-22T04:49:40.389Z,0.80
2022-10-22T04:52:06.839Z,0.77
2022-10-22T04:54:33.339Z,0.68
2022-10-22T04:56:59.888Z,0.60
2022-10-22T04:59:26.483Z,0.70
2022-10-22T05:01:52.914Z,0.40
2022-10-22T05:04:19.712Z,0.60
2022-10-22T05:06:47.063Z,0.30
2022-10-22T05:09:16.259Z,0.50
2022-10-22T05:11:48.689Z,0.60
2022-10-22T05:14:17.912Z,0.50
2022-10-22T05:19:18.007Z,0.60
2022-10-22T05:21:44.676Z,0.70
2022-10-22T05:24:11.617Z,0.50
2022-10-22T05:26:38.024Z,0.45
2022-10-22T05:29:04.421Z,0.63
2022-10-22T05:31:30.815Z,0.10
2022-10-22T05:33:57.334Z,0.63
2022-10-22T05:36:23.900Z,0.50
2022-10-22T05:38:50.865Z,0.57
2022-10-22T05:41:25.320Z,0.60
2022-10-22T05:43:54.083Z,0.65
2022-10-22T05:46:23.260Z,0.55
2022-10-22T05:48:51.148Z,0.50
2022-10-22T05:51:18.523Z,0.40
2022-10-22T05:53:45.491Z,0.60
2022-10-22T05:56:14.408Z,0.50
2022-10-22T05:58:41.888Z,0.40
2022-10-22T06:01:12.999Z,0.50
2022-10-22T06:03:39.531Z,0.40
2022-10-22T06:06:17.894Z,0.50
2022-10-22T06:08:46.217Z,0.60
2022-10-22T06:11:13.267Z,0.40
2022-10-22T06:13:39.711Z,0.60
2022-10-22T06:16:06.269Z,0.43
2022-10-22T06:18:33.697Z,0.10
2022-10-22T06:21:12.567Z,0.10
2022-10-22T06:23:40.226Z,0.28
2022-10-22T06:26:07.618Z,0.35
2022-10-22T06:28:34.316Z,0.47
2022-10-22T06:31:02.349Z,0.47
2022-10-22T06:33:29.664Z,0.50
2022-10-22T06:36:06.769Z,0.70
2022-10-22T06:38:34.229Z,0.50
2022-10-22T06:41:06.036Z,0.20
2022-10-22T06:43:32.430Z,0.45
2022-10-22T06:46:03.767Z,0.10
2022-10-22T06:48:30.590Z,0.40
2022-10-22T06:51:01.862Z,0.45
2022-10-22T06:53:28.407Z,0.32
2022-10-22T06:55:54.810Z,0.30
2022-10-22T06:58:21.491Z,0.28
2022-10-22T07:00:47.896Z,0.52
2022-10-22T07:03:15.743Z,0.30
2022-10-22T07:05:42.376Z,0.40
2022-10-22T07:08:08.903Z,0.30
2022-10-22T07:10:35.388Z,0.43
2022-10-22T07:13:01.762Z,0.32
2022-10-22T07:15:28.245Z,0.30
2022-10-22T07:17:54.656Z,0.50
2022-10-22T07:20:21.650Z,0.40
2022-10-22T07:22:48.080Z,0.25
2022-10-22T07:25:14.542Z,0.20
2022-10-22T07:27:41.139Z,0.20
2022-10-22T07:30:08.592Z,0.30
2022-10-22T07:32:34.977Z,0.40
2022-10-22T07:35:01.400Z,0.10
2022-10-22T07:37:27.769Z,0.40
2022-10-22T07:39:54.200Z,0.40
2022-10-22T07:42:20.683Z,0.40
2022-10-22T07:44:47.227Z,0.40
2022-10-22T07:47:13.614Z,0.50
2022-10-22T07:49:40.093Z,0.30
2022-10-22T07:52:08.077Z,0.40
2022-10-22T07:54:34.511Z,0.30
2022-10-22T07:57:01.089Z,0.30
2022-10-22T07:59:27.525Z,0.20
2022-10-22T08:01:53.912Z,0.43
2022-10-22T08:04:20.348Z,0.40
2022-10-22T08:06:47.458Z,0.32
2022-10-22T08:09:14.654Z,0.30
2022-10-22T08:11:41.099Z,0.40
2022-10-22T08:14:07.574Z,0.30
2022-10-22T08:16:34.048Z,2.58
2022-10-22T08:19:00.440Z,0.55
2022-10-22T08:21:26.867Z,0.40
2022-10-22T08:23:53.399Z,0.63
2022-10-22T08:26:19.880Z,0.35
2022-10-22T08:28:46.335Z,0.30
2022-10-22T08:31:12.852Z,0.50
2022-10-22T08:33:39.704Z,0.38
2022-10-22T08:36:06.808Z,0.38
2022-10-22T08:38:33.419Z,0.45
2022-10-22T08:41:08.987Z,0.70
2022-10-22T08:43:44.293Z,0.10
2022-10-22T08:46:48.006Z,2.33
2022-10-22T08:49:22.745Z,1.50
2022-10-22T08:51:49.460Z,0.40
2022-10-22T08:54:43.799Z,0.30
2022-10-22T08:57:27.600Z,0.52
2022-10-22T09:00:02.592Z,0.65
2022-10-22T09:02:39.984Z,0.43
2022-10-22T09:05:11.622Z,0.50
2022-10-22T09:07:43.549Z,0.50
2022-10-22T09:10:12.861Z,0.57
2022-10-22T09:12:39.359Z,0.50
2022-10-22T09:15:06.162Z,0.65
2022-10-22T09:17:41.481Z,0.50
2022-10-22T09:20:26.310Z,0.60
2022-10-22T09:23:03.454Z,0.82
2022-10-22T09:25:33.662Z,0.40
2022-10-22T09:28:00.133Z,0.20
2022-10-22T09:30:29.865Z,0.75
2022-10-22T09:33:06.422Z,0.30
2022-10-22T09:35:58.133Z,0.55
2022-10-22T09:38:31.547Z,0.60
2022-10-22T09:41:00.563Z,0.40
2022-10-22T09:43:27.142Z,0.45
2022-10-22T09:46:00.096Z,0.50
2022-10-22T09:48:39.259Z,0.40
2022-10-22T09:51:15.442Z,0.47
2022-10-22T09:53:44.353Z,0.28
2022-10-22T09:56:23.769Z,0.35
2022-10-22T09:58:51.809Z,0.50
2022-10-22T10:01:25.524Z,0.45
2022-10-22T10:03:52.372Z,0.80
2022-10-22T10:06:23.367Z,0.65
2022-10-22T10:08:50.306Z,0.55
2022-10-22T10:11:29.052Z,0.40
2022-10-22T10:14:10.016Z,0.25
2022-10-22T10:16:59.119Z,0.20
2022-10-22T10:19:41.002Z,0.57
2022-10-22T10:22:29.173Z,0.40
2022-10-22T10:25:11.084Z,0.40
2022-10-22T10:27:47.723Z,0.50
2022-10-22T10:30:18.692Z,0.50
2022-10-22T10:32:55.092Z,0.90
2022-10-22T10:35:47.952Z,1.10
2022-10-22T10:38:33.603Z,0.55
2022-10-22T10:41:19.864Z,0.50
2022-10-22T10:44:00.320Z,0.60
2022-10-22T10:46:44.756Z,0.40
2022-10-22T10:49:19.647Z,0.40
2022-10-22T10:52:04.649Z,0.38
2022-10-22T10:55:11.892Z,0.40
2022-10-22T10:57:41.415Z,0.90
2022-10-22T11:00:15.850Z,0.60
2022-10-22T11:03:18.103Z,0.70
2022-10-22T11:06:09.088Z,0.85
2022-10-22T11:08:45.346Z,1.02
2022-10-22T11:11:46.738Z,0.68
2022-10-22T11:14:24.226Z,0.60
2022-10-22T11:17:03.687Z,0.40
2022-10-22T11:19:51.588Z,0.30
2022-10-22T11:25:03.983Z,0.40
2022-10-22T11:27:45.874Z,0.20
2022-10-22T11:30:18.511Z,0.30
2022-10-22T11:32:49.732Z,0.22
2022-10-22T11:35:24.855Z,0.35
2022-10-22T11:37:55.597Z,0.40
2022-10-22T11:40:30.778Z,0.30
2022-10-22T11:42:59.554Z,0.25
2022-10-22T11:45:25.964Z,0.80
2022-10-22T11:48:07.724Z,0.50
2022-10-22T11:50:57.542Z,0.40
2022-10-22T11:53:31.466Z,0.50
2022-10-22T11:56:04.612Z,0.50
2022-10-22T11:58:39.173Z,0.47
2022-10-22T12:01:08.562Z,0.30
2022-10-22T12:03:34.911Z,0.60
2022-10-22T12:06:15.273Z,0.35
2022-10-22T12:08:54.433Z,0.50
2022-10-22T12:11:22.341Z,0.60
2022-10-22T12:14:00.941Z,0.40
2022-10-22T12:16:54.525Z,0.60
2022-10-22T12:19:22.880Z,0.80
2022-10-22T12:26:47.005Z,0.38
2022-10-22T12:29:16.712Z,0.35
2022-10-22T12:31:44.671Z,0.47
2022-10-22T12:34:17.865Z,0.50
2022-10-22T12:36:46.544Z,0.60
2022-10-22T12:39:19.022Z,0.30
2022-10-22T12:41:46.499Z,0.40
2022-10-22T12:44:15.899Z,0.20
2022-10-22T12:46:44.235Z,0.38
2022-10-22T12:49:18.851Z,0.50
2022-10-22T12:51:46.868Z,0.28
2022-10-22T12:54:28.679Z,0.55
2022-10-22T12:56:56.423Z,0.30
2022-10-22T12:59:29.837Z,0.40
2022-10-22T13:01:56.960Z,2.60
2022-10-22T13:04:26.631Z,2.30
2022-10-22T13:07:04.568Z,1.20
2022-10-22T13:09:38.351Z,0.60
2022-10-22T13:12:06.973Z,0.40
2022-10-22T13:14:39.124Z,0.30
2022-10-22T13:17:08.925Z,0.30
2022-10-22T13:19:41.219Z,0.30
2022-10-22T13:22:26.247Z,0.20
2022-10-22T13:24:53.242Z,0.20
2022-10-22T13:27:20.306Z,0.35
2022-10-22T13:29:46.835Z,0.20
2022-10-22T13:32:40.032Z,0.40
2022-10-22T13:35:06.806Z,0.40
2022-10-22T13:37:34.266Z,0.22
2022-10-22T13:40:00.688Z,0.40
2022-10-22T13:42:27.132Z,0.10
2022-10-22T13:44:53.526Z,0.40
2022-10-22T13:47:29.551Z,0.28
2022-10-22T13:49:59.577Z,0.10
2022-10-22T13:52:29.191Z,0.40
2022-10-22T13:54:55.685Z,0.22
2022-10-22T13:57:22.091Z,0.40
2022-10-22T13:59:48.617Z,0.20
2022-10-22T14:02:16.421Z,0.32
2022-10-22T14:04:43.247Z,0.22
2022-10-22T14:07:18.747Z,0.22
2022-10-22T14:09:45.385Z,0.47
2022-10-22T14:12:16.891Z,0.30
2022-10-22T14:14:43.486Z,0.32
2022-10-22T14:54:28.608Z,0.60
2022-10-22T14:56:55.017Z,0.45
2022-10-22T14:59:21.462Z,0.40
2022-10-22T15:01:47.907Z,0.50
2022-10-22T15:04:14.305Z,0.30
2022-10-22T15:06:40.758Z,0.30
2022-10-22T15:09:07.280Z,0.20
2022-10-22T15:11:33.904Z,0.30
2022-10-22T15:14:00.330Z,0.17
2022-10-22T15:16:26.797Z,0.15
2022-10-22T15:18:53.366Z,0.20
2022-10-22T15:21:22.078Z,0.17
2022-10-22T15:23:49.540Z,0.20
2022-10-22T15:26:16.170Z,0.30
2022-10-22T15:28:43.266Z,0.57
2022-10-22T15:31:13.141Z,0.20
2022-10-22T15:33:41.537Z,0.28
2022-10-22T15:36:13.851Z,0.20
2022-10-22T15:38:40.561Z,0.57
2022-10-22T15:41:10.109Z,0.20
2022-10-22T15:43:37.087Z,0.32
2022-10-22T15:46:13.190Z,0.30
2022-10-22T15:48:39.905Z,0.85
2022-10-22T15:51:11.548Z,0.30
2022-10-22T15:53:38.126Z,0.45
2022-10-22T15:56:04.988Z,0.40
2022-10-22T15:58:31.716Z,0.28
2022-10-22T16:01:09.410Z,0.40
2022-10-22T16:03:36.503Z,0.38
2022-10-22T16:06:04.033Z,0.20
2022-10-22T16:08:30.530Z,0.63
2022-10-22T16:10:56.971Z,0.20
2022-10-22T16:13:24.780Z,0.40
2022-10-22T16:15:51.585Z,0.40
2022-10-22T16:18:18.731Z,0.40
2022-10-22T16:20:45.300Z,0.40
2022-10-22T16:23:12.224Z,0.20
2022-10-22T16:25:42.218Z,0.30
2022-10-22T16:28:09.876Z,0.50
2022-10-22T16:30:37.424Z,0.50
2022-10-22T16:33:06.246Z,0.50
2022-10-22T16:35:32.981Z,0.30
2022-10-22T16:37:59.751Z,0.20
2022-10-22T16:40:26.903Z,0.45
2022-10-22T16:42:53.328Z,0.43
2022-10-22T16:45:19.709Z,0.43
2022-10-22T16:47:47.916Z,0.30
2022-10-22T16:50:14.737Z,0.52
2022-10-22T16:52:41.175Z,0.40
2022-10-22T16:55:08.008Z,0.40
2022-10-22T16:57:35.808Z,0.63
2022-10-22T17:00:03.936Z,0.40
2022-10-22T17:02:30.397Z,0.30
2022-10-22T17:04:56.830Z,0.30
2022-10-22T17:07:23.277Z,0.50
2022-10-22T17:09:49.707Z,0.40
2022-10-22T17:12:16.218Z,0.60
2022-10-22T17:14:42.640Z,0.60
2022-10-22T17:17:09.007Z,0.40
2022-10-22T17:19:38.770Z,0.45
2022-10-22T17:22:05.542Z,0.40
2022-10-22T17:24:32.052Z,0.50
2022-10-22T17:26:58.957Z,0.52
2022-10-22T17:29:25.477Z,0.40
2022-10-22T17:31:52.531Z,0.50
2022-10-22T17:34:18.954Z,0.50
2022-10-22T17:36:45.611Z,0.60
2022-10-22T17:39:17.220Z,0.63
2022-10-22T17:41:43.799Z,2.83
2022-10-22T17:44:12.213Z,2.22
2022-10-22T17:46:38.945Z,0.70
2022-10-22T17:49:09.587Z,0.70
2022-10-22T17:51:36.021Z,0.80
2022-10-22T17:54:04.672Z,1.00
2022-10-22T17:56:33.932Z,0.70
2022-10-22T17:59:01.580Z,0.90
2022-10-22T18:01:31.449Z,0.80
2022-10-22T18:04:03.589Z,0.68
2022-10-22T18:06:30.540Z,0.70
2022-10-22T18:08:57.023Z,0.82
2022-10-22T18:11:26.098Z,1.35
2022-10-22T18:13:54.967Z,0.85
2022-10-22T18:16:21.772Z,1.20
2022-10-22T18:18:49.536Z,1.83
2022-10-22T18:21:16.956Z,1.20
2022-10-22T18:23:43.446Z,1.00
2022-10-22T18:26:09.848Z,1.15
2022-10-22T18:28:36.732Z,0.82
2022-10-22T18:31:08.336Z,1.20
2022-10-22T18:33:36.840Z,1.33
2022-10-22T18:36:05.880Z,0.97
2022-10-22T18:38:32.776Z,1.20
2022-10-22T18:40:59.962Z,1.48
2022-10-22T18:43:26.701Z,1.40
2022-10-22T18:45:53.102Z,1.65
2022-10-22T18:48:22.869Z,1.30
2022-10-22T18:50:59.343Z,1.02
2022-10-22T18:53:25.907Z,1.30
2022-10-22T18:55:52.391Z,1.15
2022-10-22T18:58:18.826Z,1.00
2022-10-22T19:00:45.389Z,0.75
2022-10-22T19:03:14.351Z,0.90
2022-10-22T19:05:48.760Z,1.15
2022-10-22T19:08:18.156Z,0.85
2022-10-22T19:13:16.604Z,0.98
2022-10-22T19:15:43.106Z,0.90
2022-10-22T19:18:09.886Z,1.08
2022-10-22T19:20:36.936Z,1.48
2022-10-22T19:23:03.629Z,1.52
2022-10-22T19:25:30.068Z,1.50
2022-10-22T19:27:56.527Z,1.13
2022-10-22T19:30:24.064Z,1.30
2022-10-22T19:32:50.504Z,1.80
2022-10-22T19:35:17.629Z,1.95
2022-10-22T19:37:48.258Z,1.77
2022-10-22T19:40:15.224Z,1.80
2022-10-22T19:42:44.255Z,1.88
2022-10-22T19:47:37.572Z,1.75
2022-10-22T19:50:04.324Z,1.90
2022-10-22T19:52:30.782Z,1.65
2022-10-22T19:54:57.198Z,1.60
2022-10-22T19:57:23.575Z,2.45
2022-10-22T19:59:50.860Z,1.38
2022-10-22T20:02:18.565Z,1.13
2022-10-22T20:04:49.209Z,1.98
2022-10-22T20:07:16.750Z,0.50
2022-10-22T20:09:43.233Z,1.27
2022-10-22T20:12:09.652Z,1.30
2022-10-22T20:14:36.125Z,1.00
2022-10-22T20:17:02.576Z,1.30
2022-10-22T20:19:29.779Z,0.50
2022-10-22T20:21:56.347Z,1.20
2022-10-22T20:24:22.961Z,0.70
2022-10-22T20:26:49.472Z,1.25
2022-10-22T20:29:16.199Z,0.95
2022-10-22T20:31:42.982Z,1.20
2022-10-22T20:34:09.795Z,0.90
2022-10-22T20:36:36.295Z,0.95
2022-10-22T20:39:08.396Z,1.08
2022-10-22T20:41:37.656Z,0.93
2022-10-22T20:44:04.229Z,0.70
2022-10-22T20:46:32.123Z,1.17
2022-10-22T20:49:04.967Z,1.38
2022-10-22T20:51:31.800Z,1.00
2022-10-22T20:53:58.695Z,1.35
2022-10-22T20:56:25.646Z,1.75
2022-10-22T20:59:03.762Z,2.15
2022-10-22T21:01:34.283Z,2.00
2022-10-22T21:04:00.665Z,4.55
2022-10-22T21:06:27.277Z,5.15
2022-10-22T21:08:53.811Z,2.55
2022-10-22T21:11:21.007Z,2.20
2022-10-22T21:13:47.448Z,2.33
2022-10-22T21:16:16.945Z,2.92
2022-10-22T21:21:11.640Z,1.70
2022-10-22T21:23:38.349Z,2.13
2022-10-22T21:26:05.877Z,1.80
2022-10-22T21:28:35.542Z,2.17
2022-10-22T21:31:07.663Z,2.00
2022-10-22T21:33:38.500Z,2.33
2022-10-22T21:36:06.624Z,2.10
2022-10-22T21:38:33.239Z,2.00
2022-10-22T21:41:05.107Z,1.80
2022-10-22T21:43:31.537Z,1.92
2022-10-22T21:46:24.961Z,2.15
2022-10-22T21:48:56.276Z,1.70
2022-10-22T21:51:24.807Z,2.05
2022-10-22T21:56:35.172Z,1.60
2022-10-22T21:59:06.040Z,1.52
2022-10-22T22:01:32.949Z,0.50
2022-10-22T22:03:59.528Z,1.50
2022-10-22T22:06:30.725Z,0.50
2022-10-22T22:08:58.913Z,1.30
2022-10-22T22:11:27.176Z,1.45
2022-10-22T22:13:55.295Z,1.58
2022-10-22T22:16:28.154Z,1.30
2022-10-22T22:18:59.035Z,0.50
2022-10-22T22:21:26.006Z,1.30
2022-10-22T22:23:52.490Z,1.20
2022-10-22T22:26:25.369Z,1.48
2022-10-22T22:28:55.417Z,1.27
2022-10-22T22:31:30.585Z,1.48
2022-10-22T22:34:10.124Z,1.13
2022-10-22T22:39:10.563Z,1.20
2022-10-22T22:41:37.029Z,1.30
2022-10-22T22:44:03.891Z,0.60
2022-10-22T22:46:30.310Z,1.27
2022-10-22T22:48:56.802Z,0.45
2022-10-22T22:51:23.504Z,0.90
2022-10-22T22:53:50.103Z,1.00
2022-10-22T22:56:25.938Z,0.90
2022-10-22T22:58:52.644Z,1.15
2022-10-22T23:01:21.024Z,1.10
2022-10-22T23:03:52.591Z,0.85
2022-10-22T23:06:19.099Z,1.25
2022-10-22T23:08:49.366Z,1.40
2022-10-22T23:11:16.071Z,1.10
2022-10-22T23:13:43.063Z,1.05
2022-10-22T23:16:19.267Z,0.95
2022-10-22T23:18:47.633Z,1.00
2022-10-22T23:21:17.385Z,0.50
2022-10-22T23:23:49.512Z,0.50
2022-10-22T23:26:20.363Z,1.00
2022-10-22T23:28:46.831Z,0.50
2022-10-22T23:31:15.175Z,0.90
2022-10-22T23:33:42.855Z,0.85
2022-10-22T23:36:10.412Z,0.90
2022-10-22T23:38:38.817Z,0.57
2022-10-22T23:41:05.820Z,0.90
2022-10-22T23:43:36.042Z,0.80
2022-10-22T23:46:06.524Z,0.52
2022-10-22T23:48:33.345Z,0.60
2022-10-22T23:51:12.900Z,0.93
2022-10-22T23:56:08.476Z,0.60
2022-10-22T23:58:35.420Z,0.80
